Time;durP1;ratioP1;P1;durP2;ratioP2;P2;SDS_P1;SDS_P2;PMS_P1;PMS_P2;Temp;Humidity;BMP_temperature;BMP_pressure;BME280_temperature;BME280_humidity;BME280_pressure;Samples;Min_cycle;Max_cycle;Signal;HPM_P1;HPM_P2
2022/11/25 00:00:01;;;;;;;13.18;6.47;;;8.10;99.90;;;;;;5044714;28;20101;-78
2022/11/25 00:02:26;;;;;;;11.40;4.40;;;8.10;99.90;;;;;;5043346;28;20543;-78
2022/11/25 00:04:52;;;;;;;8.63;4.65;;;8.10;99.90;;;;;;5045685;28;20963;-78
2022/11/25 00:07:18;;;;;;;10.18;4.13;;;8.10;99.90;;;;;;5043356;28;20048;-78
2022/11/25 00:09:43;;;;;;;10.88;4.30;;;8.10;99.90;;;;;;5045633;28;20055;-78
2022/11/25 00:12:09;;;;;;;9.45;4.38;;;8.10;99.90;;;;;;5044394;28;20049;-78
2022/11/25 00:14:34;;;;;;;10.45;4.18;;;8.10;99.90;;;;;;5076280;27;20055;-78
2022/11/25 00:17:00;;;;;;;9.82;4.43;;;8.00;99.90;;;;;;5044959;28;20048;-79
2022/11/25 00:19:26;;;;;;;8.27;4.43;;;8.10;99.90;;;;;;5043386;28;20074;-78
2022/11/25 00:21:51;;;;;;;8.32;4.10;;;8.10;99.90;;;;;;5043640;28;20049;-78
2022/11/25 00:24:17;;;;;;;12.00;4.75;;;7.80;99.90;;;;;;5041590;28;20400;-78
2022/11/25 00:26:43;;;;;;;14.93;5.05;;;8.10;99.90;;;;;;5045903;28;20052;-78
2022/11/25 00:29:10;;;;;;;10.80;4.45;;;8.10;99.90;;;;;;5042012;28;20052;-78
2022/11/25 00:31:38;;;;;;;12.80;3.85;;;8.10;99.90;;;;;;5044709;28;20532;-78
2022/11/25 00:34:06;;;;;;;8.60;4.53;;;8.10;99.90;;;;;;5046614;28;20045;-78
2022/11/25 00:36:35;;;;;;;12.27;3.92;;;8.10;99.90;;;;;;5042574;28;20052;-78
2022/11/25 00:39:06;;;;;;;12.50;4.55;;;8.20;99.90;;;;;;5043882;28;20166;-78
2022/11/25 00:44:34;;;;;;;11.23;5.72;;;8.20;99.90;;;;;;5073520;27;20075;-78
2022/11/25 00:47:01;;;;;;;11.02;4.60;;;8.20;99.90;;;;;;5044277;28;20167;-78
2022/11/25 00:49:27;;;;;;;13.15;4.70;;;8.10;99.90;;;;;;5043668;28;20040;-79
2022/11/25 00:51:52;;;;;;;13.63;4.70;;;8.20;99.90;;;;;;5041785;28;21901;-78
2022/11/25 00:54:18;;;;;;;11.10;3.90;;;8.20;99.90;;;;;;5041882;28;20349;-78
2022/11/25 00:56:44;;;;;;;15.52;5.88;;;8.20;99.90;;;;;;5041137;28;20043;-78
2022/11/25 00:59:09;;;;;;;11.23;4.00;;;8.20;99.90;;;;;;5042278;28;20071;-78
2022/11/25 01:01:36;;;;;;;15.13;4.05;;;8.20;99.90;;;;;;5041951;28;20053;-78
2022/11/25 01:04:02;;;;;;;12.05;5.20;;;8.20;99.90;;;;;;5044790;28;20076;-78
2022/11/25 01:06:28;;;;;;;10.18;4.43;;;8.20;99.90;;;;;;5044017;28;20099;-78
2022/11/25 01:08:54;;;;;;;15.45;4.15;;;8.20;99.90;;;;;;5043587;28;20719;-78
2022/11/25 01:11:21;;;;;;;12.45;5.10;;;8.20;99.90;;;;;;5043913;28;20044;-79
2022/11/25 01:13:47;;;;;;;13.52;4.25;;;8.20;99.90;;;;;;5043587;28;20047;-78
2022/11/25 01:16:15;;;;;;;14.65;4.50;;;8.20;99.90;;;;;;5043501;28;20041;-79
2022/11/25 01:18:43;;;;;;;14.07;4.75;;;8.30;99.90;;;;;;5042579;28;20141;-79
2022/11/25 01:21:12;;;;;;;18.08;4.70;;;8.30;99.90;;;;;;5076785;27;20049;-79
2022/11/25 01:23:39;;;;;;;12.63;4.75;;;8.30;99.90;;;;;;5043558;28;20048;-79
2022/11/25 01:26:07;;;;;;;16.08;4.55;;;8.30;99.90;;;;;;5040632;28;20515;-79
2022/11/25 01:28:33;;;;;;;11.48;4.95;;;8.30;99.90;;;;;;5058468;28;20083;-79
2022/11/25 01:31:11;;;;;;;10.95;4.35;;;8.30;99.90;;;;;;5043821;28;20056;-78
2022/11/25 01:33:37;;;;;;;15.65;5.78;;;8.30;99.90;;;;;;5042705;28;20454;-78
2022/11/25 01:36:05;;;;;;;9.02;4.63;;;8.20;99.90;;;;;;5043009;28;20044;-79
2022/11/25 01:38:32;;;;;;;10.65;4.68;;;8.30;99.90;;;;;;5043668;28;20080;-79
2022/11/25 01:40:59;;;;;;;19.67;5.15;;;8.30;99.90;;;;;;5043272;28;20129;-78
2022/11/25 01:43:25;;;;;;;11.32;4.68;;;8.30;99.90;;;;;;5042739;28;20140;-79
2022/11/25 01:45:54;;;;;;;10.70;4.55;;;8.30;99.90;;;;;;5044583;28;20186;-79
2022/11/25 01:48:44;;;;;;;14.52;3.95;;;8.20;99.90;;;;;;5074952;28;20064;-78
2022/11/25 01:51:39;;;;;;;12.98;4.25;;;8.30;99.90;;;;;;5043518;28;20136;-79
2022/11/25 01:54:08;;;;;;;9.50;4.28;;;8.30;99.90;;;;;;5042246;28;20059;-78
2022/11/25 01:56:40;;;;;;;17.02;4.32;;;8.20;99.90;;;;;;5073531;27;20181;-78
2022/11/25 01:59:05;;;;;;;10.68;5.38;;;8.30;99.90;;;;;;5045085;28;20048;-78
2022/11/25 02:01:32;;;;;;;13.45;4.78;;;8.30;99.90;;;;;;5039479;28;20114;-78
2022/11/25 02:03:58;;;;;;;10.57;4.20;;;8.40;99.90;;;;;;5041654;28;20044;-78
2022/11/25 02:06:29;;;;;;;9.85;4.43;;;8.20;99.90;;;;;;5042942;28;20275;-78
2022/11/25 02:09:00;;;;;;;7.95;4.18;;;8.30;99.90;;;;;;5040873;28;21962;-78
2022/11/25 02:11:29;;;;;;;12.02;5.97;;;8.30;99.90;;;;;;5073310;27;20056;-79
2022/11/25 02:13:57;;;;;;;8.95;4.07;;;8.30;99.90;;;;;;5056388;28;20115;-79
2022/11/25 02:16:22;;;;;;;11.52;5.13;;;8.40;99.90;;;;;;5041044;28;20048;-77
2022/11/25 02:18:49;;;;;;;10.23;4.00;;;8.40;99.90;;;;;;5073563;27;20379;-77
2022/11/25 02:21:20;;;;;;;8.73;3.80;;;8.30;99.90;;;;;;5041415;28;20040;-77
2022/11/25 02:24:08;;;;;;;10.77;4.05;;;8.40;99.90;;;;;;5041581;28;20084;-77
2022/11/25 02:26:34;;;;;;;15.07;4.47;;;8.40;99.90;;;;;;5038931;28;20437;-76
2022/11/25 02:29:00;;;;;;;7.65;4.50;;;8.40;99.90;;;;;;5041026;28;20060;-78
2022/11/25 02:31:25;;;;;;;10.10;3.85;;;8.40;99.90;;;;;;5039468;28;20049;-76
2022/11/25 02:33:51;;;;;;;8.38;4.78;;;8.40;99.90;;;;;;5042275;28;20832;-75
2022/11/25 02:36:20;;;;;;;14.10;4.95;;;8.30;99.90;;;;;;5040187;28;20048;-77
2022/11/25 02:38:56;;;;;;;12.63;6.03;;;8.40;99.90;;;;;;5042369;28;20983;-78
2022/11/25 02:41:32;;;;;;;11.32;5.20;;;8.40;99.90;;;;;;5049919;28;20124;-78
2022/11/25 02:43:59;;;;;;;15.98;4.97;;;8.30;99.90;;;;;;5042000;28;20045;-78
2022/11/25 02:46:26;;;;;;;14.95;5.45;;;8.40;99.90;;;;;;5042157;28;20198;-79
2022/11/25 02:48:55;;;;;;;11.13;4.85;;;8.40;99.90;;;;;;5076231;28;20040;-77
2022/11/25 02:51:24;;;;;;;13.98;5.03;;;8.40;99.90;;;;;;5042209;28;20158;-78
2022/11/25 02:53:50;;;;;;;12.60;5.03;;;8.30;99.90;;;;;;5042933;28;20048;-78
2022/11/25 02:56:18;;;;;;;13.32;5.30;;;8.40;99.90;;;;;;5042055;28;20173;-78
2022/11/25 02:58:44;;;;;;;9.63;5.28;;;8.40;99.90;;;;;;5042660;28;20135;-79
2022/11/25 03:01:10;;;;;;;13.57;6.03;;;8.40;99.90;;;;;;5039706;28;20052;-78
2022/11/25 03:03:36;;;;;;;11.27;5.30;;;8.30;99.90;;;;;;5075483;28;21114;-78
2022/11/25 03:06:03;;;;;;;20.90;6.35;;;8.40;99.90;;;;;;5043270;28;20142;-79
2022/11/25 03:08:28;;;;;;;12.48;4.60;;;8.40;99.90;;;;;;5045118;28;20099;-77
2022/11/25 03:10:54;;;;;;;14.85;5.28;;;8.40;99.90;;;;;;5075197;28;20667;-79
2022/11/25 03:13:20;;;;;;;8.43;4.85;;;8.40;99.90;;;;;;5042668;28;20063;-79
2022/11/25 03:15:45;;;;;;;14.60;5.47;;;8.40;99.90;;;;;;5075579;28;20135;-79
2022/11/25 03:18:11;;;;;;;11.88;5.10;;;8.40;99.90;;;;;;5042647;28;20122;-79
2022/11/25 03:20:37;;;;;;;11.75;4.75;;;8.40;99.90;;;;;;5044471;28;20048;-78
2022/11/25 03:23:04;;;;;;;11.43;5.15;;;8.50;99.90;;;;;;5041270;28;20048;-78
2022/11/25 03:25:30;;;;;;;11.07;4.82;;;8.50;99.90;;;;;;5039798;28;20049;-79
2022/11/25 03:27:56;;;;;;;11.15;5.05;;;8.50;99.90;;;;;;5043724;28;20062;-79
2022/11/25 03:30:25;;;;;;;13.65;5.68;;;8.70;99.90;;;;;;5046597;28;20048;-79
2022/11/25 03:32:50;;;;;;;12.82;7.13;;;8.50;99.90;;;;;;5046349;28;20130;-79
2022/11/25 03:35:16;;;;;;;11.63;5.70;;;8.50;99.90;;;;;;5044345;28;20048;-78
2022/11/25 03:37:42;;;;;;;15.82;5.50;;;8.50;99.90;;;;;;5045787;28;20136;-78
2022/11/25 03:40:09;;;;;;;17.52;6.20;;;8.50;99.90;;;;;;5049585;28;20752;-77
2022/11/25 03:42:35;;;;;;;15.23;6.50;;;8.60;99.90;;;;;;5044978;28;20076;-78
2022/11/25 03:45:02;;;;;;;17.13;6.35;;;8.50;99.90;;;;;;5045257;28;21274;-78
2022/11/25 03:47:27;;;;;;;9.07;6.20;;;8.60;99.90;;;;;;5046752;28;20051;-78
2022/11/25 03:49:53;;;;;;;11.60;5.78;;;8.50;99.90;;;;;;5045387;28;20045;-79
2022/11/25 03:52:18;;;;;;;12.45;6.85;;;8.50;99.90;;;;;;5047306;28;20052;-79
2022/11/25 03:54:44;;;;;;;15.00;6.20;;;8.50;99.90;;;;;;5045555;28;20190;-79
2022/11/25 03:57:10;;;;;;;15.85;6.32;;;8.50;99.90;;;;;;5044881;28;20086;-79
2022/11/25 03:59:36;;;;;;;13.02;6.15;;;8.50;99.90;;;;;;5044438;28;20136;-79
2022/11/25 04:02:02;;;;;;;16.13;6.68;;;8.50;99.90;;;;;;5043703;28;20049;-76
2022/11/25 04:04:27;;;;;;;14.38;6.35;;;8.50;99.90;;;;;;5044353;28;20791;-77
2022/11/25 04:06:53;;;;;;;14.38;6.32;;;7.90;99.90;;;;;;5045930;28;20507;-80
2022/11/25 04:09:19;;;;;;;11.00;6.00;;;8.80;99.90;;;;;;5076365;27;20155;-77
2022/11/25 04:14:29;;;;;;;11.70;6.03;;;8.50;99.90;;;;;;5045869;28;20220;-78
2022/11/25 04:16:55;;;;;;;11.13;6.70;;;8.50;99.90;;;;;;5045726;28;20154;-77
2022/11/25 04:19:21;;;;;;;11.25;5.97;;;8.50;99.90;;;;;;5044726;28;20059;-77
2022/11/25 04:21:47;;;;;;;10.68;6.53;;;8.60;99.90;;;;;;5043423;28;20139;-80
2022/11/25 04:24:13;;;;;;;18.20;6.50;;;8.70;99.90;;;;;;5046233;28;20136;-80
2022/11/25 04:26:39;;;;;;;15.93;7.72;;;8.50;99.90;;;;;;5044702;28;20045;-77
2022/11/25 04:29:05;;;;;;;17.52;6.50;;;8.50;99.90;;;;;;5047826;28;20043;-80
2022/11/25 04:31:30;;;;;;;9.82;5.90;;;8.60;99.90;;;;;;5043165;28;20053;-77
2022/11/25 04:33:56;;;;;;;20.60;6.95;;;8.50;99.90;;;;;;5044199;28;20184;-77
2022/11/25 04:36:22;;;;;;;16.63;7.03;;;8.60;99.90;;;;;;5043875;28;20060;-78
2022/11/25 04:38:47;;;;;;;18.08;7.47;;;8.60;99.90;;;;;;5044494;28;20044;-78
2022/11/25 04:41:13;;;;;;;12.32;6.97;;;8.60;99.90;;;;;;5044495;28;20144;-79
2022/11/25 04:43:39;;;;;;;16.10;7.00;;;8.60;99.90;;;;;;5045467;28;20090;-77
2022/11/25 04:46:05;;;;;;;16.48;6.93;;;8.60;99.90;;;;;;5045477;28;20102;-78
2022/11/25 04:48:30;;;;;;;12.82;6.72;;;8.60;99.90;;;;;;5044155;28;20595;-78
2022/11/25 04:50:56;;;;;;;15.73;6.28;;;8.60;99.90;;;;;;5044621;28;20059;-78
2022/11/25 04:53:22;;;;;;;17.20;7.35;;;8.60;99.90;;;;;;5043574;28;20048;-78
2022/11/25 04:55:47;;;;;;;16.90;7.85;;;8.60;99.90;;;;;;5045264;28;20595;-78
2022/11/25 04:59:38;;;;;;;11.63;7.05;;;8.60;99.90;;;;;;5042042;28;20044;-78
2022/11/25 05:00:59;;;;;;;22.35;8.52;;;8.70;99.90;;;;;;5041519;28;20053;-78
2022/11/25 05:03:25;;;;;;;15.88;7.78;;;8.70;99.90;;;;;;5063299;28;20063;-78
2022/11/25 05:05:50;;;;;;;14.88;6.35;;;8.70;99.90;;;;;;5060045;28;20563;-78
2022/11/25 05:08:16;;;;;;;15.07;8.70;;;8.70;99.90;;;;;;5042774;28;20041;-77
2022/11/25 05:10:41;;;;;;;16.45;7.35;;;8.70;99.90;;;;;;5041542;28;20036;-78
2022/11/25 05:13:07;;;;;;;16.52;7.53;;;8.90;99.90;;;;;;5065429;28;20051;-78
2022/11/25 05:15:33;;;;;;;20.92;8.55;;;8.70;99.90;;;;;;5042627;28;20060;-78
2022/11/25 05:17:58;;;;;;;18.23;7.65;;;8.70;99.90;;;;;;5041985;28;20259;-78
2022/11/25 05:20:24;;;;;;;19.08;8.43;;;8.60;99.90;;;;;;5043280;28;20566;-78
2022/11/25 05:22:50;;;;;;;13.10;7.70;;;8.70;99.90;;;;;;5042359;28;20513;-78
2022/11/25 05:25:15;;;;;;;17.92;8.68;;;8.60;99.90;;;;;;5041102;28;20075;-78
2022/11/25 05:27:41;;;;;;;15.48;7.75;;;8.60;99.90;;;;;;5040242;28;20045;-78
2022/11/25 05:30:08;;;;;;;16.65;7.63;;;8.70;99.90;;;;;;5036120;28;20060;-77
2022/11/25 05:32:33;;;;;;;12.57;7.93;;;8.60;99.90;;;;;;5043650;28;20057;-77
2022/11/25 05:34:59;;;;;;;16.20;7.60;;;8.60;99.90;;;;;;5038482;28;20563;-78
2022/11/25 05:37:24;;;;;;;24.98;8.98;;;8.60;99.90;;;;;;5042895;28;20048;-78
2022/11/25 05:39:50;;;;;;;16.08;8.68;;;8.60;99.90;;;;;;5045677;28;20163;-78
2022/11/25 05:42:16;;;;;;;26.08;10.35;;;8.70;99.90;;;;;;5043276;28;20880;-78
2022/11/25 05:44:42;;;;;;;18.00;7.68;;;8.60;99.90;;;;;;5042055;28;20488;-78
2022/11/25 05:47:07;;;;;;;18.25;8.18;;;8.70;99.90;;;;;;5041904;28;20091;-78
2022/11/25 05:49:33;;;;;;;12.60;8.30;;;8.70;99.90;;;;;;5044278;28;20086;-78
2022/11/25 05:52:00;;;;;;;17.98;9.48;;;8.70;99.90;;;;;;5042467;28;20051;-78
2022/11/25 05:54:25;;;;;;;13.75;7.80;;;8.70;99.90;;;;;;5076186;27;20056;-77
2022/11/25 05:56:51;;;;;;;18.17;8.25;;;8.70;99.90;;;;;;5040319;28;20090;-78
2022/11/25 05:59:17;;;;;;;12.23;7.95;;;8.70;99.90;;;;;;5039698;28;20160;-77
2022/11/25 06:01:42;;;;;;;18.05;8.55;;;8.70;99.90;;;;;;5041968;28;20488;-78
2022/11/25 06:04:09;;;;;;;17.73;9.95;;;8.70;99.90;;;;;;5061467;28;20253;-77
2022/11/25 06:06:34;;;;;;;18.33;9.00;;;8.70;99.90;;;;;;5042881;28;20427;-78
2022/11/25 06:09:00;;;;;;;17.17;9.07;;;8.70;99.90;;;;;;5025160;28;20557;-77
2022/11/25 06:11:26;;;;;;;18.13;8.73;;;8.80;99.90;;;;;;5042035;28;20048;-77
2022/11/25 06:13:51;;;;;;;16.25;8.90;;;8.80;99.90;;;;;;5042945;28;20065;-78
2022/11/25 06:16:20;;;;;;;15.60;8.50;;;8.70;99.90;;;;;;5042746;28;20040;-77
2022/11/25 06:18:46;;;;;;;18.20;9.25;;;8.80;99.90;;;;;;5041167;28;20087;-77
2022/11/25 06:21:12;;;;;;;12.43;8.02;;;8.80;99.90;;;;;;5045287;28;20170;-77
2022/11/25 06:23:38;;;;;;;15.20;9.63;;;8.80;99.90;;;;;;5043764;28;20238;-77
2022/11/25 06:26:18;;;;;;;12.57;9.10;;;8.90;99.90;;;;;;5041501;28;20041;-77
2022/11/25 06:28:45;;;;;;;10.13;8.05;;;8.80;99.90;;;;;;5057128;28;20905;-77
2022/11/25 06:31:17;;;;;;;10.68;7.70;;;8.80;99.90;;;;;;5056095;28;20098;-77
2022/11/25 06:33:45;;;;;;;16.20;7.90;;;8.80;99.90;;;;;;5073707;27;20056;-78
2022/11/25 06:36:17;;;;;;;17.92;8.20;;;8.70;99.90;;;;;;5039851;28;20048;-77
2022/11/25 06:38:51;;;;;;;19.10;10.50;;;8.80;99.90;;;;;;5046934;28;20048;-77
2022/11/25 06:41:17;;;;;;;8.85;6.90;;;9.10;99.90;;;;;;5042538;28;20832;-78
2022/11/25 06:43:43;;;;;;;12.77;8.30;;;8.80;99.90;;;;;;5039792;28;20834;-77
2022/11/25 06:46:14;;;;;;;15.52;8.05;;;8.80;99.90;;;;;;5043925;28;20044;-78
2022/11/25 06:48:40;;;;;;;11.20;7.50;;;8.80;99.90;;;;;;5041460;28;20055;-77
2022/11/25 06:51:08;;;;;;;17.35;8.75;;;9.10;99.90;;;;;;5037613;28;20052;-77
2022/11/25 06:53:34;;;;;;;17.77;9.00;;;8.90;99.90;;;;;;5043399;28;20158;-78
2022/11/25 06:56:11;;;;;;;14.55;7.47;;;8.80;99.90;;;;;;5039683;28;20993;-77
2022/11/25 06:58:38;;;;;;;22.17;8.05;;;8.90;99.90;;;;;;5040543;28;20045;-77
2022/11/25 07:01:17;;;;;;;14.10;6.97;;;8.90;99.90;;;;;;5040235;28;20367;-77
2022/11/25 07:03:44;;;;;;;10.27;6.05;;;8.80;99.90;;;;;;5042417;28;20802;-77
2022/11/25 07:06:12;;;;;;;7.15;6.10;;;8.80;99.90;;;;;;5043806;28;20872;-77
2022/11/25 07:08:38;;;;;;;9.27;6.13;;;8.90;99.90;;;;;;5045499;28;20048;-77
2022/11/25 07:11:13;;;;;;;15.38;7.18;;;8.60;99.90;;;;;;5044940;28;20440;-77
2022/11/25 07:13:38;;;;;;;11.13;5.43;;;8.80;99.90;;;;;;5060732;28;20059;-78
2022/11/25 07:16:05;;;;;;;16.85;6.80;;;8.80;99.90;;;;;;5045172;28;20322;-78
2022/11/25 07:18:34;;;;;;;11.18;6.35;;;8.80;99.90;;;;;;5046566;28;20094;-78
2022/11/25 07:21:03;;;;;;;12.98;6.47;;;8.80;99.90;;;;;;5044678;28;20052;-78
2022/11/25 07:23:29;;;;;;;15.63;6.07;;;8.80;99.90;;;;;;5047735;28;20481;-78
2022/11/25 07:26:01;;;;;;;15.15;6.30;;;8.80;99.90;;;;;;5047282;28;20048;-77
2022/11/25 07:28:27;;;;;;;9.05;4.95;;;8.80;99.90;;;;;;5045793;28;20049;-78
2022/11/25 07:30:52;;;;;;;12.80;6.45;;;8.70;99.90;;;;;;5044407;28;20052;-77
2022/11/25 07:33:18;;;;;;;10.40;5.25;;;8.70;99.90;;;;;;5046338;28;20052;-79
2022/11/25 07:35:44;;;;;;;7.65;4.95;;;8.80;99.90;;;;;;5047304;28;20056;-77
2022/11/25 07:38:09;;;;;;;7.60;4.35;;;8.70;99.90;;;;;;5046166;28;20844;-76
2022/11/25 07:40:35;;;;;;;10.38;4.13;;;8.70;99.90;;;;;;5045151;28;20159;-76
2022/11/25 07:43:01;;;;;;;10.25;4.22;;;8.70;99.90;;;;;;5046577;28;20132;-78
2022/11/25 07:45:26;;;;;;;9.75;4.72;;;8.70;99.90;;;;;;5047174;28;20127;-78
2022/11/25 07:47:52;;;;;;;6.80;4.55;;;8.70;99.90;;;;;;5045518;28;20044;-79
2022/11/25 07:50:18;;;;;;;8.27;4.72;;;8.60;99.90;;;;;;5045592;28;20041;-79
2022/11/25 07:52:43;;;;;;;8.65;4.10;;;8.60;99.90;;;;;;5077799;27;20052;-79
2022/11/25 07:55:09;;;;;;;12.40;5.25;;;8.60;99.90;;;;;;5044222;28;20550;-80
2022/11/25 07:57:35;;;;;;;5.88;4.25;;;8.70;99.90;;;;;;5045289;28;20048;-79
2022/11/25 08:00:00;;;;;;;7.93;4.03;;;8.70;99.90;;;;;;5042606;28;20869;-80
2022/11/25 08:02:26;;;;;;;7.88;4.13;;;8.60;99.90;;;;;;5042671;28;20059;-79
2022/11/25 08:04:52;;;;;;;12.40;4.32;;;8.60;99.90;;;;;;5043204;28;20098;-80
2022/11/25 08:07:17;;;;;;;8.50;4.47;;;8.70;99.90;;;;;;5042660;28;20041;-79
2022/11/25 08:09:43;;;;;;;10.98;4.32;;;8.70;99.90;;;;;;5045416;28;20045;-79
2022/11/25 08:12:09;;;;;;;9.25;4.55;;;9.00;99.90;;;;;;5059031;28;20059;-79
2022/11/25 08:14:35;;;;;;;9.90;3.97;;;8.70;99.90;;;;;;5044733;28;20480;-79
2022/11/25 08:17:02;;;;;;;6.70;3.88;;;8.80;99.90;;;;;;5043579;28;20049;-80
2022/11/25 08:19:27;;;;;;;10.13;3.97;;;8.80;99.90;;;;;;5043190;28;20096;-79
2022/11/25 08:21:53;;;;;;;9.40;3.72;;;8.80;99.90;;;;;;5042351;28;20063;-78
2022/11/25 08:24:20;;;;;;;7.00;3.70;;;8.80;99.90;;;;;;5044421;28;21079;-79
2022/11/25 08:26:46;;;;;;;8.48;3.35;;;8.80;99.90;;;;;;5044133;28;20044;-79
2022/11/25 08:29:14;;;;;;;7.63;3.85;;;8.80;99.90;;;;;;5045101;28;20381;-79
2022/11/25 08:31:41;;;;;;;8.38;3.92;;;8.80;99.90;;;;;;5043938;28;20150;-79
2022/11/25 08:34:07;;;;;;;10.20;3.20;;;8.70;99.90;;;;;;5044543;28;20080;-78
2022/11/25 08:36:34;;;;;;;10.38;3.78;;;8.80;99.90;;;;;;5064348;28;20057;-79
2022/11/25 08:39:03;;;;;;;7.10;3.65;;;8.80;99.90;;;;;;5066788;28;20048;-80
2022/11/25 08:41:31;;;;;;;8.98;4.25;;;8.80;99.90;;;;;;5063457;28;20048;-80
2022/11/25 08:43:59;;;;;;;5.97;4.05;;;8.80;99.90;;;;;;5069180;28;20036;-80
2022/11/25 08:46:28;;;;;;;11.43;4.97;;;8.80;99.90;;;;;;5064292;28;20444;-80
2022/11/25 08:48:54;;;;;;;8.57;4.00;;;8.90;99.90;;;;;;5069934;28;20500;-78
2022/11/25 08:51:24;;;;;;;8.57;3.88;;;8.90;99.90;;;;;;5098219;27;21626;-78
2022/11/25 08:53:50;;;;;;;8.23;4.45;;;8.90;99.90;;;;;;5046076;28;20064;-78
2022/11/25 08:56:17;;;;;;;6.35;4.22;;;8.90;99.90;;;;;;5044925;28;20041;-78
2022/11/25 08:58:42;;;;;;;7.15;3.80;;;8.90;99.90;;;;;;5045080;28;20132;-76
2022/11/25 09:01:09;;;;;;;9.48;4.13;;;9.00;99.90;;;;;;5046878;28;20044;-78
2022/11/25 09:03:38;;;;;;;10.20;4.65;;;9.10;99.90;;;;;;5046587;28;20059;-74
2022/11/25 09:06:05;;;;;;;6.68;3.72;;;9.10;99.90;;;;;;5042251;28;20053;-78
2022/11/25 09:08:32;;;;;;;7.28;4.28;;;9.10;99.90;;;;;;5045268;28;20037;-78
2022/11/25 09:10:58;;;;;;;8.00;4.15;;;9.20;99.90;;;;;;5042397;28;20048;-77
2022/11/25 09:13:25;;;;;;;10.43;4.53;;;9.20;99.90;;;;;;5045336;28;20041;-78
2022/11/25 09:15:51;;;;;;;9.55;4.22;;;9.30;99.90;;;;;;5042802;28;20093;-77
2022/11/25 09:18:19;;;;;;;6.75;3.60;;;9.30;99.90;;;;;;5046166;28;20063;-77
2022/11/25 09:20:45;;;;;;;10.25;4.55;;;9.30;99.90;;;;;;5041591;28;20503;-78
2022/11/25 09:23:12;;;;;;;10.57;4.43;;;9.30;99.90;;;;;;5043906;28;20048;-78
2022/11/25 09:25:37;;;;;;;9.48;4.78;;;9.30;99.90;;;;;;5044297;28;20087;-77
2022/11/25 09:28:04;;;;;;;5.93;3.97;;;9.40;99.90;;;;;;5042689;28;20492;-78
2022/11/25 09:30:30;;;;;;;4.60;3.35;;;9.40;99.90;;;;;;5044455;28;20040;-78
2022/11/25 09:32:56;;;;;;;6.80;3.90;;;9.40;99.90;;;;;;5042964;28;20056;-78
2022/11/25 09:35:24;;;;;;;10.70;4.45;;;9.40;99.90;;;;;;5045737;28;20106;-77
2022/11/25 09:37:50;;;;;;;8.27;3.80;;;9.50;99.90;;;;;;5056024;28;20048;-77
2022/11/25 09:40:58;;;;;;;7.05;4.00;;;9.50;99.90;;;;;;5073826;28;20055;-77
2022/11/25 09:46:54;;;;;;;7.43;3.85;;;9.50;99.90;;;;;;5066602;28;20071;-77
2022/11/25 09:49:29;;;;;;;6.32;4.05;;;9.50;99.90;;;;;;5059362;28;20481;-77
2022/11/25 09:51:58;;;;;;;7.88;3.42;;;9.60;99.90;;;;;;5056361;28;20040;-77
2022/11/25 09:54:28;;;;;;;8.75;4.18;;;9.60;99.90;;;;;;5058354;28;20067;-77
2022/11/25 09:57:03;;;;;;;6.82;4.35;;;9.70;99.90;;;;;;5057779;28;20048;-77
2022/11/25 09:59:38;;;;;;;6.68;4.47;;;9.70;99.90;;;;;;5060355;28;20095;-76
2022/11/25 10:02:15;;;;;;;9.93;3.45;;;9.70;99.90;;;;;;5057345;28;20135;-76
2022/11/25 10:04:48;;;;;;;7.32;3.58;;;9.80;99.90;;;;;;5061953;28;20488;-76
2022/11/25 10:07:27;;;;;;;10.43;4.22;;;9.80;99.90;;;;;;5094415;27;20139;-76
2022/11/25 10:09:54;;;;;;;4.07;3.33;;;9.80;99.90;;;;;;5057461;28;20059;-76
2022/11/25 10:12:31;;;;;;;5.65;3.45;;;9.90;99.90;;;;;;5055967;28;20059;-76
2022/11/25 10:15:05;;;;;;;6.65;3.67;;;9.90;99.90;;;;;;5064016;28;20885;-77
2022/11/25 10:17:50;;;;;;;5.20;3.28;;;9.90;99.90;;;;;;5061903;28;20083;-76
2022/11/25 10:20:34;;;;;;;6.65;3.45;;;10.00;99.90;;;;;;5050265;28;20051;-77
2022/11/25 10:23:11;;;;;;;7.43;3.63;;;10.00;99.90;;;;;;5058329;28;20043;-76
2022/11/25 10:25:40;;;;;;;5.32;3.38;;;10.00;99.90;;;;;;5059385;28;20083;-77
2022/11/25 10:28:15;;;;;;;7.25;3.47;;;10.10;99.90;;;;;;5060180;28;20048;-77
2022/11/25 10:30:43;;;;;;;6.95;3.17;;;10.20;99.90;;;;;;5065738;28;20151;-76
2022/11/25 10:33:31;;;;;;;6.97;2.97;;;10.20;99.90;;;;;;5055555;28;20500;-77
2022/11/25 10:36:08;;;;;;;9.02;3.83;;;10.20;99.90;;;;;;5055273;28;20107;-77
2022/11/25 10:38:38;;;;;;;6.20;3.55;;;10.30;99.90;;;;;;5056604;28;20177;-77
2022/11/25 10:41:04;;;;;;;8.93;3.53;;;10.30;99.90;;;;;;5062087;28;20063;-77
2022/11/25 10:43:31;;;;;;;4.32;3.45;;;10.30;99.90;;;;;;5053429;28;20049;-76
2022/11/25 10:46:10;;;;;;;10.95;3.13;;;10.30;99.90;;;;;;5061194;28;20048;-77
2022/11/25 10:48:51;;;;;;;7.53;3.78;;;10.40;99.90;;;;;;5061410;28;20385;-77
2022/11/25 10:51:31;;;;;;;9.30;3.17;;;10.40;99.90;;;;;;5058774;28;20380;-77
2022/11/25 10:54:18;;;;;;;9.65;3.67;;;10.40;99.90;;;;;;5058472;28;20066;-77
2022/11/25 10:56:49;;;;;;;7.78;3.60;;;10.40;99.90;;;;;;5061684;28;20127;-77
2022/11/25 10:59:33;;;;;;;6.63;3.40;;;10.40;99.90;;;;;;5056052;28;20046;-76
2022/11/25 11:02:16;;;;;;;6.93;3.33;;;10.40;99.90;;;;;;5058058;28;20051;-78
2022/11/25 11:04:58;;;;;;;4.45;3.78;;;10.40;99.90;;;;;;5056660;28;20060;-77
2022/11/25 11:07:32;;;;;;;5.13;2.85;;;10.60;99.90;;;;;;5052141;28;20052;-77
2022/11/25 11:10:14;;;;;;;6.25;3.63;;;10.70;99.90;;;;;;5056098;28;20094;-77
2022/11/25 11:12:58;;;;;;;7.10;4.60;;;10.80;99.90;;;;;;5056910;28;20127;-76
2022/11/25 11:15:46;;;;;;;5.13;3.83;;;10.90;99.90;;;;;;5055078;28;20040;-77
2022/11/25 11:18:40;;;;;;;4.82;2.65;;;10.90;99.90;;;;;;5065144;28;20052;-76
2022/11/25 11:21:28;;;;;;;6.88;3.78;;;11.00;99.90;;;;;;5056981;28;20122;-76
2022/11/25 11:23:56;;;;;;;6.35;3.10;;;11.00;99.90;;;;;;5050580;28;20048;-76
2022/11/25 11:26:33;;;;;;;4.93;4.30;;;11.10;99.90;;;;;;5056428;28;20044;-77
2022/11/25 11:29:05;;;;;;;6.72;2.95;;;11.00;99.90;;;;;;5049211;28;20424;-77
2022/11/25 11:31:38;;;;;;;5.25;3.67;;;11.00;99.90;;;;;;5057272;28;20358;-77
2022/11/25 11:34:17;;;;;;;5.95;4.30;;;11.00;99.90;;;;;;5055352;28;20067;-77
2022/11/25 11:36:49;;;;;;;6.40;2.95;;;11.00;99.90;;;;;;5099064;28;20131;-77
2022/11/25 11:39:39;;;;;;;7.32;3.03;;;11.00;99.90;;;;;;5058698;28;20044;-77
2022/11/25 11:42:28;;;;;;;7.18;3.10;;;11.00;99.90;;;;;;5068991;28;20048;-77
2022/11/25 11:45:02;;;;;;;3.90;2.00;;;11.00;99.90;;;;;;5071920;28;20181;-77
2022/11/25 11:48:05;;;;;;;5.80;2.83;;;11.00;99.90;;;;;;5068076;28;20052;-77
2022/11/25 11:50:34;;;;;;;6.35;2.67;;;11.10;99.90;;;;;;5050119;28;20137;-77
2022/11/25 11:53:13;;;;;;;10.20;2.90;;;11.00;99.90;;;;;;5060143;28;20129;-77
2022/11/25 11:56:27;;;;;;;6.32;2.30;;;11.00;99.90;;;;;;5066581;28;20083;-77
2022/11/25 11:59:15;;;;;;;12.45;3.22;;;11.10;99.90;;;;;;5041411;28;20064;-77
2022/11/25 12:01:53;;;;;;;12.43;2.85;;;11.10;99.90;;;;;;5060199;28;20157;-77
2022/11/25 12:04:37;;;;;;;4.05;2.40;;;11.20;99.90;;;;;;5064636;28;20105;-77
2022/11/25 12:07:38;;;;;;;4.63;2.42;;;11.30;99.90;;;;;;5061295;28;20051;-77
2022/11/25 12:10:14;;;;;;;3.08;2.47;;;11.30;99.90;;;;;;5061871;28;20049;-77
2022/11/25 12:13:10;;;;;;;5.90;3.30;;;11.30;99.90;;;;;;5066088;28;20116;-77
2022/11/25 12:15:43;;;;;;;7.20;2.33;;;11.30;99.90;;;;;;5056543;28;20063;-77
2022/11/25 12:18:27;;;;;;;7.90;2.17;;;11.30;99.90;;;;;;5059634;28;20044;-77
2022/11/25 12:21:04;;;;;;;5.35;2.95;;;11.30;99.90;;;;;;5062315;28;20048;-77
2022/11/25 12:24:02;;;;;;;8.95;2.88;;;11.20;99.90;;;;;;5061525;28;20055;-77
2022/11/25 12:26:48;;;;;;;6.10;3.38;;;11.30;99.90;;;;;;5062039;28;20176;-77
2022/11/25 12:30:18;;;;;;;4.72;2.50;;;11.40;99.90;;;;;;5063620;28;20040;-77
2022/11/25 12:33:20;;;;;;;7.00;2.70;;;11.40;99.90;;;;;;4984932;28;20069;-77
2022/11/25 12:36:05;;;;;;;5.97;3.10;;;11.50;99.90;;;;;;5028327;28;20083;-77
2022/11/25 12:38:55;;;;;;;7.68;3.78;;;11.50;99.90;;;;;;5060766;28;20056;-77
2022/11/25 12:41:48;;;;;;;8.95;2.95;;;11.50;99.90;;;;;;5058034;28;20423;-77
2022/11/25 12:44:16;;;;;;;4.57;2.00;;;11.40;99.90;;;;;;5060293;28;20052;-77
2022/11/25 12:46:45;;;;;;;5.45;2.60;;;11.40;99.90;;;;;;5058598;28;20057;-77
2022/11/25 12:49:26;;;;;;;5.75;2.20;;;11.40;99.90;;;;;;5059512;28;20042;-77
2022/11/25 12:52:15;;;;;;;10.30;2.78;;;11.40;99.90;;;;;;5058525;28;20048;-77
2022/11/25 12:54:47;;;;;;;4.65;2.55;;;11.40;99.90;;;;;;5059610;28;20047;-77
2022/11/25 12:57:29;;;;;;;8.68;2.72;;;11.40;99.90;;;;;;5060589;28;20043;-77
2022/11/25 13:00:10;;;;;;;7.47;2.55;;;11.40;99.90;;;;;;5059619;28;20171;-88
2022/11/25 13:03:13;;;;;;;6.00;3.03;;;11.40;99.90;;;;;;5058830;28;20086;-77
2022/11/25 13:05:58;;;;;;;5.20;2.83;;;11.30;99.90;;;;;;5053006;28;20152;-77
2022/11/25 13:08:50;;;;;;;8.73;3.00;;;11.30;99.90;;;;;;5058066;28;20052;-78
2022/11/25 13:11:23;;;;;;;6.45;2.65;;;11.30;99.90;;;;;;5055641;28;20114;-77
2022/11/25 13:14:02;;;;;;;10.93;3.20;;;11.30;99.90;;;;;;5055439;28;20052;-77